Time;durP1;ratioP1;P1;durP2;ratioP2;P2;SDS_P1;SDS_P2;PMS_P1;PMS_P2;Temp;Humidity;BMP_temperature;BMP_pressure;BME280_temperature;BME280_humidity;BME280_pressure;Samples;Min_cycle;Max_cycle;Signal;HPM_P1;HPM_P2
2022/03/18 00:01:26;;;;;;;4.75;3.78;;;;;;;19.21;40.65;98402.91;10496253;28;20045;-58
2022/03/18 00:06:46;;;;;;;4.28;3.60;;;;;;;19.20;40.81;98412.06;10550531;28;20044;-58
2022/03/18 00:12:06;;;;;;;4.88;4.05;;;;;;;19.19;40.72;98418.59;10526070;28;20044;-59
2022/03/18 00:17:26;;;;;;;4.20;3.80;;;;;;;19.18;40.85;98414.25;10536081;28;20105;-58
2022/03/18 00:22:47;;;;;;;4.45;3.53;;;;;;;19.19;40.87;98415.06;10536615;28;20402;-58
2022/03/18 00:28:07;;;;;;;3.72;3.35;;;;;;;19.19;40.70;98420.47;10536496;28;20108;-58
2022/03/18 00:33:27;;;;;;;4.32;3.80;;;;;;;19.16;40.64;98417.22;10549802;28;20563;-58
2022/03/18 00:38:46;;;;;;;4.10;3.70;;;;;;;19.16;40.83;98419.94;10536029;28;20052;-59
2022/03/18 00:44:05;;;;;;;5.22;3.67;;;;;;;19.15;40.54;98421.03;10535056;28;20051;-59
2022/03/18 00:55:04;;;;;;;4.53;3.78;;;;;;;19.14;40.62;98421.31;10537221;28;20121;-58
2022/03/18 01:00:24;;;;;;;3.80;3.50;;;;;;;19.12;40.69;98427.00;10535467;28;20052;-58
2022/03/18 01:05:43;;;;;;;4.20;3.80;;;;;;;19.13;40.66;98431.31;10548708;28;20040;-58
2022/03/18 01:11:06;;;;;;;4.22;3.65;;;;;;;19.12;40.74;98435.09;10514411;28;20514;-59
2022/03/18 01:16:25;;;;;;;4.03;3.63;;;;;;;19.12;40.76;98437.00;10537940;28;20047;-59
2022/03/18 01:21:44;;;;;;;3.60;3.28;;;;;;;19.10;40.53;98441.88;10535281;28;20536;-58
2022/03/18 01:27:05;;;;;;;3.45;3.15;;;;;;;19.09;40.63;98432.16;10543309;28;20496;-58
2022/03/18 01:32:25;;;;;;;3.70;3.33;;;;;;;19.09;40.62;98445.66;10556634;28;20066;-58
2022/03/18 01:37:44;;;;;;;4.13;3.60;;;;;;;19.07;40.79;98451.34;10556344;28;20040;-58
2022/03/18 01:43:11;;;;;;;4.07;3.67;;;;;;;19.07;40.53;98448.66;10542258;28;20052;-58
2022/03/18 01:48:30;;;;;;;3.70;3.40;;;;;;;19.06;40.64;98448.94;10542639;28;20368;-58
2022/03/18 01:54:44;;;;;;;3.78;3.38;;;;;;;19.05;40.65;98447.31;10555973;28;20051;-58
2022/03/18 01:59:29;;;;;;;3.78;3.45;;;;;;;19.04;40.74;98451.91;10541723;28;20051;-58
2022/03/18 02:04:48;;;;;;;4.35;3.95;;;;;;;19.03;40.67;98450.28;10541633;28;20483;-58
2022/03/18 02:10:09;;;;;;;3.70;3.40;;;;;;;19.02;40.70;98456.78;10539045;28;20573;-59
2022/03/18 02:15:29;;;;;;;4.00;3.58;;;;;;;19.03;40.62;98462.97;10541489;28;20473;-58
2022/03/18 02:20:49;;;;;;;4.10;3.70;;;;;;;19.01;40.57;98468.66;10540990;28;20441;-58
2022/03/18 02:26:09;;;;;;;3.88;3.47;;;;;;;19.01;40.60;98479.47;10554676;28;20044;-58
2022/03/18 02:31:30;;;;;;;3.85;3.55;;;;;;;19.00;40.55;98482.47;10541091;28;20055;-58
2022/03/18 02:36:50;;;;;;;3.38;3.08;;;;;;;18.98;40.66;98482.75;10539691;28;20067;-58
2022/03/18 02:42:10;;;;;;;4.85;3.45;;;;;;;18.98;40.50;98485.44;10540099;28;20056;-58
2022/03/18 02:47:29;;;;;;;4.05;3.50;;;;;;;18.97;40.71;98489.22;10539602;28;20059;-58
2022/03/18 02:52:48;;;;;;;3.60;3.22;;;;;;;18.95;40.53;98494.09;10539221;28;20063;-58
2022/03/18 02:58:07;;;;;;;3.88;3.53;;;;;;;18.95;40.68;98488.69;10539191;28;20056;-58
2022/03/18 03:03:27;;;;;;;4.07;3.63;;;;;;;18.94;40.51;98501.38;10539861;28;20048;-59
2022/03/18 03:08:46;;;;;;;4.10;3.70;;;;;;;18.94;40.57;98506.00;10539085;28;20055;-58
2022/03/18 03:14:06;;;;;;;3.35;3.05;;;;;;;18.92;40.42;98502.75;10539123;28;20048;-58
2022/03/18 03:19:25;;;;;;;3.90;3.60;;;;;;;18.92;40.48;98513.56;10538772;28;20047;-59
2022/03/18 03:24:45;;;;;;;3.80;3.50;;;;;;;18.90;40.48;98519.25;10538408;28;20096;-58
2022/03/18 03:30:07;;;;;;;3.80;3.38;;;;;;;18.90;40.43;98521.13;10538502;28;20602;-59
2022/03/18 03:35:27;;;;;;;3.90;3.50;;;;;;;18.89;40.42;98522.22;10538390;28;20052;-58
2022/03/18 03:40:47;;;;;;;3.47;3.20;;;;;;;18.88;40.51;98531.41;10495689;28;20064;-58
2022/03/18 03:46:07;;;;;;;3.85;3.55;;;;;;;18.88;40.35;98534.09;10496658;28;20106;-59
2022/03/18 03:51:27;;;;;;;4.32;3.78;;;;;;;18.86;40.57;98541.69;10551308;28;20048;-58
2022/03/18 03:56:46;;;;;;;3.60;3.30;;;;;;;18.86;40.56;98547.09;10537470;28;20052;-58
2022/03/18 04:02:06;;;;;;;3.97;3.55;;;;;;;18.84;40.57;98557.34;10536561;28;20052;-58
2022/03/18 04:07:25;;;;;;;3.92;3.47;;;;;;;18.83;40.52;98561.13;10537245;28;20056;-59
2022/03/18 04:12:47;;;;;;;4.13;3.60;;;;;;;18.82;40.51;98573.00;10512657;28;20052;-59
2022/03/18 04:18:07;;;;;;;3.72;3.42;;;;;;;18.82;40.41;98575.69;10536685;28;20078;-58
2022/03/18 04:23:27;;;;;;;3.75;3.45;;;;;;;18.81;40.52;98579.50;10536547;28;20073;-58
2022/03/18 04:28:46;;;;;;;3.95;3.38;;;;;;;18.79;40.48;98579.72;10536521;28;20052;-58
2022/03/18 04:34:06;;;;;;;3.70;3.38;;;;;;;18.80;40.54;98591.38;10536366;28;20059;-58
2022/03/18 04:39:25;;;;;;;3.65;3.35;;;;;;;18.77;40.58;98600.81;10549294;28;20097;-58
2022/03/18 04:44:44;;;;;;;3.72;3.38;;;;;;;18.76;40.36;98610.81;10535686;28;20048;-58
2022/03/18 04:50:05;;;;;;;3.53;3.22;;;;;;;18.76;40.53;98618.09;10520441;28;20109;-58
2022/03/18 04:55:24;;;;;;;3.35;3.05;;;;;;;18.76;40.36;98629.69;10535991;28;20116;-58
2022/03/18 05:00:44;;;;;;;4.20;3.55;;;;;;;18.76;40.46;98632.41;10543553;28;20044;-58
2022/03/18 05:06:03;;;;;;;3.47;3.17;;;;;;;18.77;40.36;98641.31;10543464;28;20481;-58
2022/03/18 05:11:23;;;;;;;4.00;3.50;;;;;;;18.80;40.38;98653.47;10548592;28;20054;-58
2022/03/18 05:16:42;;;;;;;3.70;3.40;;;;;;;18.83;40.82;98652.94;10543819;28;20109;-58
2022/03/18 05:22:03;;;;;;;6.38;3.45;;;;;;;18.85;40.87;98658.88;10543536;28;20453;-58
2022/03/18 05:27:22;;;;;;;3.50;3.20;;;;;;;18.88;40.84;98664.53;10544144;28;20060;-58
2022/03/18 05:32:42;;;;;;;3.95;2.97;;;;;;;18.90;41.02;98672.38;10543093;28;20495;-59
2022/03/18 05:38:01;;;;;;;4.03;3.30;;;;;;;18.93;41.09;98672.63;10541726;28;20071;-58
2022/03/18 05:43:22;;;;;;;4.72;3.25;;;;;;;18.98;41.16;98688.00;10542773;28;20055;-58
2022/03/18 05:48:42;;;;;;;3.47;3.17;;;;;;;19.02;41.15;98690.97;10522460;28;20105;-59
2022/03/18 05:54:01;;;;;;;3.70;3.38;;;;;;;19.05;41.03;98685.84;10541340;28;20105;-59
2022/03/18 05:59:25;;;;;;;3.63;3.33;;;;;;;19.10;41.23;98693.91;10541524;28;20059;-59
2022/03/18 06:04:46;;;;;;;3.97;3.38;;;;;;;19.13;41.51;98704.19;10541456;28;20048;-59
2022/03/18 06:15:44;;;;;;;17.43;5.73;;;;;;;19.24;41.53;98715.75;10532596;28;20052;-59
2022/03/18 06:21:10;;;;;;;21.02;6.72;;;;;;;19.28;41.66;98716.00;10540813;28;20562;-58
2022/03/18 06:26:31;;;;;;;16.20;6.63;;;;;;;19.31;41.73;98721.66;10538763;28;20048;-58
2022/03/18 06:31:51;;;;;;;20.27;6.60;;;;;;;19.33;41.86;98735.72;10554142;28;20048;-58
2022/03/18 06:37:10;;;;;;;14.95;6.10;;;;;;;19.38;41.73;98736.78;10537846;28;20052;-58
2022/03/18 06:42:30;;;;;;;13.80;5.93;;;;;;;19.42;41.58;98752.16;10536586;28;20086;-58
2022/03/18 06:47:50;;;;;;;15.45;6.15;;;;;;;19.44;41.71;98760.81;10537283;28;20568;-58
2022/03/18 06:53:09;;;;;;;14.52;6.53;;;;;;;19.47;41.65;98765.66;10540226;28;20052;-58
2022/03/18 06:58:28;;;;;;;14.35;6.10;;;;;;;19.49;41.59;98763.50;10539961;28;20078;-58
2022/03/18 07:03:48;;;;;;;11.13;5.95;;;;;;;19.51;41.53;98777.53;10544981;28;20044;-58
2022/03/18 07:09:07;;;;;;;15.68;6.90;;;;;;;19.54;41.63;98781.59;10539598;28;20453;-58
2022/03/18 07:14:27;;;;;;;18.15;7.20;;;;;;;19.56;41.49;98791.06;10540632;28;20050;-58
2022/03/18 07:19:47;;;;;;;17.85;7.78;;;;;;;19.57;41.45;98786.44;10552462;28;20094;-58
2022/03/18 07:25:06;;;;;;;16.10;7.60;;;;;;;19.59;41.58;98805.09;10538984;28;20056;-58
2022/03/18 07:30:26;;;;;;;18.25;8.40;;;;;;;19.60;41.55;98804.84;10538827;28;20052;-58
2022/03/18 07:35:45;;;;;;;16.85;8.32;;;;;;;19.62;41.66;98807.25;10538528;28;20074;-58
2022/03/18 07:41:04;;;;;;;21.20;8.40;;;;;;;19.62;41.61;98813.47;10498144;28;20057;-58
2022/03/18 07:46:24;;;;;;;19.00;8.43;;;;;;;19.64;41.63;98822.13;10537522;28;20056;-58
2022/03/18 07:51:43;;;;;;;17.20;8.43;;;;;;;19.65;41.52;98831.03;10537098;28;20048;-58
2022/03/18 07:57:02;;;;;;;15.60;8.20;;;;;;;19.65;41.52;98839.97;10537974;28;20063;-58
2022/03/18 08:02:22;;;;;;;16.70;8.30;;;;;;;19.67;41.60;98837.78;10536045;28;20498;-58
2022/03/18 08:07:48;;;;;;;15.75;8.43;;;;;;;19.68;41.53;98844.00;10537220;28;20052;-58
2022/03/18 08:13:07;;;;;;;16.55;8.38;;;;;;;19.68;41.49;98849.41;10512488;28;20403;-58
2022/03/18 08:18:27;;;;;;;14.82;8.35;;;;;;;19.68;41.35;98850.22;10550234;28;20755;-58
2022/03/18 08:23:46;;;;;;;15.50;8.25;;;;;;;19.70;41.50;98858.88;10537128;28;20051;-58
2022/03/18 08:29:07;;;;;;;16.60;8.73;;;;;;;19.71;41.67;98865.09;10537303;28;20418;-57
2022/03/18 08:34:27;;;;;;;14.43;8.00;;;;;;;19.71;41.86;98873.19;10535535;28;20052;-58
2022/03/18 08:39:46;;;;;;;16.98;8.38;;;;;;;19.71;42.05;98881.31;10536028;28;20071;-58
2022/03/18 08:45:07;;;;;;;14.45;7.80;;;;;;;19.72;42.00;98883.78;10535611;28;20123;-58
2022/03/18 08:50:27;;;;;;;13.63;7.82;;;;;;;19.73;42.30;98892.69;10536075;28;20503;-58
2022/03/18 08:55:47;;;;;;;14.25;7.35;;;;;;;19.73;42.17;98895.41;10535774;28;20060;-58
2022/03/18 09:01:06;;;;;;;12.77;7.03;;;;;;;19.73;42.21;98901.59;10534746;28;20048;-58
2022/03/18 09:06:26;;;;;;;13.85;7.50;;;;;;;19.73;42.15;98901.59;10535116;28;20078;-58
2022/03/18 09:11:45;;;;;;;11.07;6.95;;;;;;;19.73;42.20;98896.19;10523372;28;20063;-58
2022/03/18 09:17:06;;;;;;;10.63;6.65;;;;;;;19.73;42.08;98907.03;10531163;28;20078;-58
2022/03/18 09:22:26;;;;;;;11.68;7.28;;;;;;;19.73;42.00;98906.22;10535701;28;20457;-58
2022/03/18 09:27:46;;;;;;;10.20;7.13;;;;;;;19.74;41.87;98913.25;10535249;28;20473;-58
2022/03/18 09:33:06;;;;;;;11.82;6.97;;;;;;;19.73;42.08;98917.03;10535405;28;20044;-58
2022/03/18 09:38:25;;;;;;;12.10;7.07;;;;;;;19.74;41.85;98918.66;10522779;28;20052;-58
2022/03/18 09:43:45;;;;;;;12.55;7.10;;;;;;;19.73;41.96;98925.16;10537183;28;20055;-58
2022/03/18 09:49:11;;;;;;;9.95;6.47;;;;;;;19.73;41.86;98917.03;10542754;28;20418;-58
2022/03/18 09:54:32;;;;;;;10.68;6.40;;;;;;;19.72;41.83;98918.94;10527755;28;20437;-58
2022/03/18 09:59:52;;;;;;;11.80;6.65;;;;;;;19.73;41.65;98927.84;10541834;28;20058;-58
2022/03/18 10:05:15;;;;;;;11.32;6.57;;;;;;;19.73;41.69;98938.66;10555326;28;20111;-58
2022/03/18 10:10:44;;;;;;;9.10;6.57;;;;;;;19.72;41.66;98945.19;10541874;28;20464;-58
2022/03/18 10:16:03;;;;;;;;;;;;;;;19.71;41.64;98938.09;10542188;28;20059;-58
2022/03/18 10:21:23;;;;;;;;;;;;;;;19.70;41.64;98936.50;10541816;28;19927;-58
2022/03/18 10:26:43;;;;;;;8.88;6.40;;;;;;;19.71;41.53;98947.06;10541070;28;19920;-58
2022/03/18 10:32:04;;;;;;;10.30;6.38;;;;;;;19.70;41.63;98952.72;10540732;28;20075;-58
2022/03/18 10:37:25;;;;;;;10.68;6.63;;;;;;;19.71;41.61;98959.75;10540596;28;20056;-57
2022/03/18 10:42:58;;;;;;;9.15;6.00;;;;;;;19.72;41.73;98958.69;10539936;28;20411;-58
2022/03/18 10:48:18;;;;;;;9.75;6.38;;;;;;;19.71;41.73;98948.91;10540266;28;20052;-58
2022/03/18 10:53:39;;;;;;;10.35;6.40;;;;;;;19.71;41.63;98963.28;10540036;28;20050;-58
2022/03/18 10:58:58;;;;;;;11.30;6.20;;;;;;;19.71;41.76;98954.31;10539966;28;20506;-58
2022/03/18 11:04:18;;;;;;;9.50;6.07;;;;;;;19.69;41.67;98949.19;10539058;28;20048;-58
2022/03/18 11:15:26;;;;;;;10.55;6.38;;;;;;;19.69;41.57;98956.50;10538902;28;20040;-58
2022/03/18 11:20:50;;;;;;;8.93;6.10;;;;;;;19.69;41.56;98954.59;10539008;28;20067;-58
2022/03/18 11:26:12;;;;;;;7.60;5.22;;;;;;;19.69;41.69;98951.09;10538978;28;20434;-58
2022/03/18 11:31:33;;;;;;;8.88;6.00;;;;;;;19.69;41.59;98960.00;10523357;28;20452;-58
2022/03/18 11:37:10;;;;;;;8.00;5.90;;;;;;;19.70;41.73;98960.84;10538277;28;20063;-58
2022/03/18 11:42:29;;;;;;;8.45;5.88;;;;;;;19.69;41.63;98949.19;10522612;28;20048;-58
2022/03/18 11:47:49;;;;;;;7.40;5.80;;;;;;;19.68;41.65;98955.69;10551550;28;20044;-58
2022/03/18 11:53:12;;;;;;;8.93;5.32;;;;;;;19.69;41.52;98951.09;10537767;28;20063;-58
2022/03/18 11:58:32;;;;;;;7.75;5.80;;;;;;;19.68;41.61;98946.75;10537435;28;20048;-57
2022/03/18 12:03:55;;;;;;;8.63;5.55;;;;;;;19.67;41.77;98945.94;10536735;28;20095;-58
2022/03/18 12:09:14;;;;;;;8.02;5.95;;;;;;;19.68;41.53;98941.34;10531315;28;20052;-58
2022/03/18 12:14:33;;;;;;;8.27;6.00;;;;;;;19.68;41.70;98942.16;10519064;28;20044;-58
2022/03/18 12:19:59;;;;;;;8.35;5.70;;;;;;;19.67;41.70;98937.84;10536730;28;20052;-58
2022/03/18 12:25:22;;;;;;;7.40;5.70;;;;;;;19.66;41.68;98938.09;10536017;28;20052;-58
2022/03/18 12:30:42;;;;;;;7.30;5.70;;;;;;;19.66;41.70;98938.94;10536323;28;20113;-58
2022/03/18 12:36:02;;;;;;;8.80;5.30;;;;;;;19.66;41.69;98936.22;10549453;28;20064;-58
2022/03/18 12:41:22;;;;;;;7.40;5.47;;;;;;;19.66;41.58;98940.81;10535412;28;20063;-58
2022/03/18 12:46:43;;;;;;;7.88;5.80;;;;;;;19.65;41.58;98939.19;10535972;28;20048;-58
2022/03/18 12:52:13;;;;;;;8.73;5.82;;;;;;;19.65;41.70;98944.59;10534224;28;20050;-58
2022/03/18 12:57:37;;;;;;;7.45;5.68;;;;;;;19.64;41.57;98930.28;10526667;28;20109;-58
2022/03/18 13:02:57;;;;;;;7.95;5.18;;;;;;;19.65;41.63;98933.78;10534125;28;20059;-58
2022/03/18 13:08:17;;;;;;;7.25;5.70;;;;;;;19.64;41.67;98935.69;10533656;28;20043;-58
2022/03/18 13:13:43;;;;;;;8.32;5.32;;;;;;;19.64;41.70;98933.00;10500092;28;20055;-58
2022/03/18 13:19:03;;;;;;;6.70;5.13;;;;;;;19.64;41.71;98932.16;10538063;28;20059;-58
2022/03/18 13:24:22;;;;;;;6.25;5.10;;;;;;;19.63;41.59;98934.06;10543579;28;20414;-58
2022/03/18 13:35:22;;;;;;;6.97;5.20;;;;;;;19.61;41.69;98925.41;10556276;28;20051;-58
2022/03/18 13:41:00;;;;;;;7.47;5.18;;;;;;;19.61;41.73;98930.00;10541983;28;20052;-58
2022/03/18 13:46:21;;;;;;;6.37;5.23;;;;;;;19.61;41.59;98930.00;10542835;28;20052;-58
2022/03/18 13:51:46;;;;;;;18.20;16.27;;;;;;;19.59;41.14;98927.56;10542984;28;20052;-59
2022/03/18 13:57:05;;;;;;;41.78;36.65;;;;;;;19.51;37.70;98922.72;10559473;28;20048;-58
2022/03/18 14:02:30;;;;;;;43.45;38.45;;;;;;;19.38;36.42;98918.66;10541401;28;20376;-58
2022/03/18 14:07:49;;;;;;;45.60;38.45;;;;;;;19.29;35.87;98923.81;10541208;28;20117;-58
2022/03/18 14:13:30;;;;;;;43.28;38.35;;;;;;;19.26;35.01;98918.13;10526685;28;20043;-58
2022/03/18 14:18:50;;;;;;;46.13;41.15;;;;;;;19.19;34.87;98907.63;10541008;28;20070;-57
2022/03/18 14:24:09;;;;;;;44.78;39.95;;;;;;;19.15;34.48;98920.84;10555213;28;20040;-59
2022/03/18 14:29:31;;;;;;;44.55;39.78;;;;;;;19.10;34.01;98912.72;10554306;28;20211;-58
2022/03/18 14:34:52;;;;;;;45.45;39.20;;;;;;;19.06;33.72;98906.25;10544297;28;20071;-58
2022/03/18 14:40:13;;;;;;;45.22;38.80;;;;;;;19.06;34.05;98900.84;10522069;28;20051;-60
2022/03/18 14:45:33;;;;;;;33.05;29.52;;;;;;;19.10;35.18;98903.81;10542053;28;20105;-59
2022/03/18 14:50:53;;;;;;;32.50;29.10;;;;;;;19.16;35.45;98908.13;10553829;28;20036;-59
2022/03/18 14:56:18;;;;;;;31.73;28.42;;;;;;;19.22;35.72;98907.06;10539690;28;20412;-60
2022/03/18 15:01:38;;;;;;;30.75;27.58;;;;;;;19.27;36.02;98914.38;10542866;28;20048;-60
2022/03/18 15:06:58;;;;;;;30.08;26.48;;;;;;;19.31;36.16;98907.34;10540158;28;20048;-59
2022/03/18 15:12:18;;;;;;;28.95;25.52;;;;;;;19.36;36.47;98912.72;10552967;28;20158;-60
2022/03/18 15:17:37;;;;;;;25.17;22.50;;;;;;;19.38;36.67;98907.84;10552924;28;20470;-60
2022/03/18 15:22:59;;;;;;;26.08;23.38;;;;;;;19.42;36.67;98908.13;10545210;28;20105;-59
2022/03/18 15:28:18;;;;;;;26.42;23.13;;;;;;;19.43;36.96;98905.16;10538342;28;20043;-60
2022/03/18 15:33:40;;;;;;;24.48;21.98;;;;;;;19.46;37.15;98915.41;10552004;28;20039;-59
2022/03/18 15:38:59;;;;;;;24.77;22.27;;;;;;;19.48;37.21;98918.69;10543176;28;20040;-59
2022/03/18 15:44:20;;;;;;;23.05;20.42;;;;;;;19.51;37.35;98915.41;10534950;28;20055;-59
2022/03/18 15:49:40;;;;;;;23.55;20.58;;;;;;;19.52;37.57;98914.34;10527023;28;20093;-59
2022/03/18 15:54:59;;;;;;;23.33;20.92;;;;;;;19.55;37.59;98921.91;10537975;28;20487;-59
2022/03/18 16:00:21;;;;;;;21.48;19.38;;;;;;;19.57;37.87;98927.03;10548308;28;20047;-59
2022/03/18 16:05:41;;;;;;;21.15;18.95;;;;;;;19.60;37.98;98931.09;10552766;28;20372;-59
2022/03/18 16:11:01;;;;;;;20.95;18.85;;;;;;;19.63;37.92;98927.84;10538044;28;20536;-59
2022/03/18 16:16:21;;;;;;;20.73;18.58;;;;;;;19.64;38.09;98941.09;10571488;28;20044;-59
2022/03/18 16:21:40;;;;;;;20.08;17.98;;;;;;;19.66;38.36;98943.50;10541913;28;20100;-59
2022/03/18 16:27:01;;;;;;;19.60;17.50;;;;;;;19.69;38.42;98945.69;10537426;28;20052;-59
2022/03/18 16:32:23;;;;;;;18.92;17.05;;;;;;;19.70;38.43;98950.03;10565578;28;20048;-60
2022/03/18 16:37:43;;;;;;;18.60;16.65;;;;;;;19.71;38.48;98948.91;10554375;28;20040;-60
2022/03/18 16:43:04;;;;;;;19.55;15.98;;;;;;;19.72;38.53;98962.19;10533583;28;20066;-61
2022/03/18 16:54:04;;;;;;;16.38;14.80;;;;;;;19.73;39.13;98976.53;10546265;28;20464;-61
2022/03/18 16:59:23;;;;;;;21.42;15.25;;;;;;;19.74;39.46;98992.50;10536946;28;20060;-61
2022/03/18 17:04:45;;;;;;;16.45;14.73;;;;;;;19.75;39.56;98993.28;10512184;28;20051;-59
2022/03/18 17:10:04;;;;;;;30.80;14.77;;;;;;;19.75;39.80;98998.69;10532874;28;20051;-60
2022/03/18 17:15:24;;;;;;;15.80;14.18;;;;;;;19.76;40.02;99003.03;10549392;28;20499;-60
2022/03/18 17:20:44;;;;;;;17.27;14.18;;;;;;;19.76;40.10;99008.44;10509776;28;20123;-60
2022/03/18 17:26:05;;;;;;;15.50;13.88;;;;;;;19.77;39.95;99012.75;10536938;28;20058;-61
2022/03/18 17:31:26;;;;;;;15.15;13.48;;;;;;;19.78;40.24;99024.38;10525871;28;20048;-61
2022/03/18 17:36:46;;;;;;;18.17;13.18;;;;;;;19.79;40.33;99024.13;10533569;28;20517;-61
2022/03/18 17:42:07;;;;;;;14.82;12.85;;;;;;;19.79;40.37;99034.94;10534583;28;20056;-61
2022/03/18 17:47:27;;;;;;;16.00;12.75;;;;;;;19.81;40.33;99048.19;10534411;28;20422;-60
2022/03/18 17:52:47;;;;;;;15.18;12.68;;;;;;;19.81;40.41;99056.31;10510982;28;20040;-61
2022/03/18 17:58:06;;;;;;;16.52;13.27;;;;;;;19.81;40.25;99064.44;10514321;28;20144;-61
2022/03/18 18:03:26;;;;;;;14.07;12.57;;;;;;;19.78;40.31;99060.38;10529432;28;20056;-61
2022/03/18 18:08:46;;;;;;;13.95;12.52;;;;;;;19.80;40.39;99068.19;10529309;28;20070;-61
2022/03/18 18:14:06;;;;;;;15.40;12.93;;;;;;;19.80;40.53;99077.16;10537407;28;20051;-61
2022/03/18 18:25:04;;;;;;;14.35;12.15;;;;;;;19.81;41.09;99080.66;10542219;28;20484;-59
2022/03/18 18:30:25;;;;;;;13.05;11.70;;;;;;;19.79;41.23;99078.22;10546001;28;20047;-60
2022/03/18 18:35:45;;;;;;;13.02;11.63;;;;;;;19.79;41.42;99082.81;10545115;28;20036;-61
2022/03/18 18:41:06;;;;;;;12.52;11.20;;;;;;;19.79;41.66;99080.13;10512249;28;20060;-60
2022/03/18 18:46:26;;;;;;;13.65;11.43;;;;;;;19.78;41.77;99081.19;10534170;28;20051;-60
2022/03/18 18:51:49;;;;;;;13.48;11.32;;;;;;;19.78;41.83;99090.13;10535287;28;20045;-60
2022/03/18 18:57:10;;;;;;;12.55;10.15;;;;;;;19.78;42.02;99098.25;10540297;28;20052;-60
2022/03/18 19:02:32;;;;;;;12.65;10.93;;;;;;;19.77;42.01;99107.41;10507793;28;20563;-61
2022/03/18 19:07:52;;;;;;;11.38;10.18;;;;;;;19.77;42.42;99110.13;10541438;28;20047;-62
2022/03/18 19:13:12;;;;;;;13.02;10.55;;;;;;;19.77;42.38;99120.13;10513076;28;20040;-62
2022/03/18 19:18:35;;;;;;;12.63;10.23;;;;;;;19.75;42.55;99115.81;10524119;28;20048;-61
2022/03/18 19:23:55;;;;;;;11.15;9.88;;;;;;;19.75;42.89;99117.69;10497763;28;20055;-59
2022/03/18 19:29:14;;;;;;;12.10;9.52;;;;;;;19.76;42.91;99122.03;10516228;28;20055;-60
2022/03/18 19:34:34;;;;;;;10.95;9.57;;;;;;;19.75;42.92;99125.81;10539302;28;20048;-60
2022/03/18 19:39:53;;;;;;;14.30;9.68;;;;;;;19.73;43.13;99112.56;10529408;28;20036;-64
2022/03/18 19:45:13;;;;;;;11.32;10.00;;;;;;;19.74;43.14;99124.22;10536939;28;20040;-62
2022/03/18 19:50:33;;;;;;;12.10;10.05;;;;;;;19.73;43.54;99120.66;10550701;28;20047;-63
2022/03/18 20:01:31;;;;;;;10.90;9.35;;;;;;;19.73;43.55;99128.78;10551382;28;20035;-65
2022/03/18 20:06:51;;;;;;;12.68;9.45;;;;;;;19.73;43.47;99138.78;10525960;28;20090;-58
2022/03/18 20:12:11;;;;;;;10.05;8.85;;;;;;;19.72;43.45;99135.28;10541441;28;20044;-59
2022/03/18 20:17:33;;;;;;;10.80;8.85;;;;;;;19.72;43.60;99148.00;10530265;28;20258;-58
2022/03/18 20:22:52;;;;;;;11.43;8.63;;;;;;;19.72;43.64;99146.09;10535061;28;20058;-59
2022/03/18 20:28:11;;;;;;;10.82;8.50;;;;;;;19.72;43.56;99150.72;10536574;28;20059;-60
2022/03/18 20:33:31;;;;;;;13.55;8.70;;;;;;;19.72;43.57;99148.81;10522202;28;20072;-60
2022/03/18 20:38:50;;;;;;;10.10;8.45;;;;;;;19.70;43.52;99145.53;10547807;28;20090;-61
2022/03/18 20:44:12;;;;;;;10.70;8.60;;;;;;;19.70;43.85;99155.53;10532559;28;20056;-57
2022/03/18 20:49:31;;;;;;;10.65;7.97;;;;;;;19.69;43.56;99170.13;10525454;28;20514;-58
2022/03/18 20:54:51;;;;;;;10.95;8.48;;;;;;;19.68;43.52;99173.91;10543945;28;20093;-53
2022/03/18 21:00:11;;;;;;;9.55;8.57;;;;;;;19.67;43.60;99177.69;10535615;28;20048;-56
2022/03/18 21:05:30;;;;;;;16.95;8.30;;;;;;;19.67;43.99;99175.00;10520657;28;20048;-55
2022/03/18 21:10:50;;;;;;;11.48;8.00;;;;;;;19.66;44.08;99170.66;10513521;28;20053;-57
2022/03/18 21:16:10;;;;;;;9.55;7.88;;;;;;;19.66;44.15;99181.47;10493618;28;20052;-54
2022/03/18 21:21:32;;;;;;;13.63;7.85;;;;;;;19.66;44.23;99184.16;10494158;28;20415;-55
2022/03/18 21:32:30;;;;;;;9.98;7.93;;;;;;;19.63;44.23;99177.41;10534609;28;20052;-53
2022/03/18 21:37:50;;;;;;;11.35;7.95;;;;;;;19.62;44.30;99161.44;10517676;28;20048;-56
2022/03/18 21:43:10;;;;;;;11.90;7.43;;;;;;;19.62;44.32;99172.25;10538110;28;20052;-57
2022/03/18 21:48:30;;;;;;;9.75;7.50;;;;;;;19.60;44.46;99177.97;10537053;28;20422;-56
2022/03/18 21:53:50;;;;;;;8.73;7.32;;;;;;;19.60;44.18;99175.25;10542340;28;20051;-53
2022/03/18 21:59:09;;;;;;;10.57;6.95;;;;;;;19.59;44.15;99178.22;10524987;28;20111;-54
2022/03/18 22:04:29;;;;;;;10.50;6.90;;;;;;;19.58;44.29;99177.38;10529112;28;20044;-56
2022/03/18 22:09:48;;;;;;;8.65;7.50;;;;;;;19.57;44.25;99181.19;10543288;28;20101;-56
2022/03/18 22:15:09;;;;;;;7.53;6.28;;;;;;;19.57;44.34;99183.91;10537826;28;20059;-55
2022/03/18 22:20:29;;;;;;;7.68;6.88;;;;;;;19.55;44.20;99178.75;10543130;28;20052;-56
2022/03/18 22:25:49;;;;;;;7.97;6.78;;;;;;;19.55;44.33;99178.75;10542692;28;20063;-56
2022/03/18 22:31:08;;;;;;;9.98;7.35;;;;;;;19.54;44.40;99173.59;10542104;28;20059;-55
2022/03/18 22:36:28;;;;;;;10.80;6.53;;;;;;;19.53;44.40;99175.50;10532490;28;20060;-54
2022/03/18 22:41:48;;;;;;;6.93;6.22;;;;;;;19.52;44.57;99171.19;10514095;28;20056;-56
2022/03/18 22:47:08;;;;;;;8.45;6.57;;;;;;;19.51;44.82;99164.13;10511748;28;20060;-58
2022/03/18 22:52:28;;;;;;;7.60;6.65;;;;;;;19.51;44.86;99168.75;10532960;28;20403;-59
2022/03/18 22:57:47;;;;;;;12.02;7.15;;;;;;;19.52;44.79;99168.47;10540936;28;20384;-58
2022/03/18 23:03:09;;;;;;;8.23;6.25;;;;;;;19.51;45.59;99174.94;10525940;28;20044;-58
2022/03/18 23:08:28;;;;;;;9.38;6.38;;;;;;;19.51;45.53;99171.44;10521824;28;20067;-59
2022/03/18 23:13:49;;;;;;;7.03;6.32;;;;;;;19.51;45.69;99166.84;10499161;28;20078;-60
2022/03/18 23:19:09;;;;;;;9.45;6.30;;;;;;;19.51;45.49;99172.25;10499192;28;20491;-60
2022/03/18 23:24:29;;;;;;;8.75;6.60;;;;;;;19.50;45.72;99159.00;10522493;28;20048;-59
2022/03/18 23:29:49;;;;;;;7.85;6.55;;;;;;;19.49;45.49;99160.09;10539665;28;20055;-60
2022/03/18 23:35:09;;;;;;;9.65;6.82;;;;;;;19.48;45.43;99153.88;10539785;28;20136;-61
2022/03/18 23:40:29;;;;;;;7.43;6.38;;;;;;;19.47;45.47;99138.72;10539252;28;20493;-60
2022/03/18 23:45:49;;;;;;;6.95;6.25;;;;;;;19.47;45.44;99136.00;10538994;28;20059;-60
2022/03/18 23:51:08;;;;;;;6.88;6.18;;;;;;;19.45;45.41;99143.56;10527081;28;20048;-60
2022/03/18 23:56:28;;;;;;;8.32;5.93;;;;;;;19.45;45.17;99143.56;10533029;28;20043;-61
